createdAt,value
2023-02-23T00:01:30.272Z,13.41
2023-02-23T00:04:00.243Z,13.40
2023-02-23T00:06:30.668Z,13.38
2023-02-23T00:09:01.277Z,13.38
2023-02-23T00:11:30.205Z,13.36
2023-02-23T00:14:01.282Z,13.34
2023-02-23T00:16:29.782Z,13.33
2023-02-23T00:19:02.516Z,13.31
2023-02-23T00:21:33.047Z,13.30
2023-02-23T00:24:04.010Z,13.26
2023-02-23T00:26:35.293Z,13.24
2023-02-23T00:29:10.457Z,13.20
2023-02-23T00:31:39.354Z,13.20
2023-02-23T00:34:08.011Z,13.19
2023-02-23T00:36:37.470Z,13.16
2023-02-23T00:39:19.104Z,13.15
2023-02-23T00:41:47.879Z,13.13
2023-02-23T00:44:18.073Z,13.11
2023-02-23T00:46:49.586Z,13.11
2023-02-23T00:49:19.218Z,13.09
2023-02-23T00:51:48.074Z,13.08
2023-02-23T00:54:18.241Z,13.06
2023-02-23T00:56:47.522Z,13.04
2023-02-23T00:59:17.977Z,13.02
2023-02-23T01:01:46.683Z,13.00
2023-02-23T01:04:15.473Z,12.99
2023-02-23T01:06:44.019Z,12.98
2023-02-23T01:09:21.908Z,12.96
2023-02-23T01:11:50.332Z,12.94
2023-02-23T01:14:22.265Z,12.93
2023-02-23T01:16:50.755Z,12.90
2023-02-23T01:19:19.225Z,12.89
2023-02-23T01:21:47.661Z,12.87
2023-02-23T01:24:16.086Z,12.87
2023-02-23T01:26:46.918Z,12.84
2023-02-23T01:29:17.709Z,12.82
2023-02-23T01:31:51.217Z,12.82
2023-02-23T01:34:21.790Z,12.81
2023-02-23T01:36:50.635Z,12.78
2023-02-23T01:39:22.061Z,12.76
2023-02-23T01:41:54.223Z,12.75
2023-02-23T01:45:23.800Z,12.69
2023-02-23T01:47:57.109Z,12.67
2023-02-23T01:50:30.636Z,12.65
2023-02-23T01:52:59.980Z,12.64
2023-02-23T01:55:30.197Z,12.65
2023-02-23T01:58:08.411Z,12.63
2023-02-23T02:00:37.762Z,12.63
2023-02-23T02:03:15.790Z,12.62
2023-02-23T02:05:45.632Z,12.63
2023-02-23T02:08:14.793Z,12.62
2023-02-23T02:10:46.758Z,12.61
2023-02-23T02:13:22.138Z,12.59
2023-02-23T02:16:32.300Z,12.54
2023-02-23T02:19:53.286Z,12.54
2023-02-23T02:22:59.215Z,12.50
2023-02-23T02:25:50.770Z,12.47
2023-02-23T02:29:09.107Z,12.46
2023-02-23T02:32:27.715Z,12.44
2023-02-23T02:35:33.733Z,12.43
2023-02-23T02:38:27.284Z,12.44
2023-02-23T02:41:03.934Z,12.45
2023-02-23T02:43:44.401Z,12.45
2023-02-23T02:46:18.732Z,12.47
2023-02-23T02:48:57.852Z,12.49
2023-02-23T02:51:32.328Z,12.50
2023-02-23T02:54:11.210Z,12.51
2023-02-23T02:56:44.301Z,12.51
2023-02-23T02:59:35.008Z,12.53
2023-02-23T03:02:21.515Z,12.54
2023-02-23T03:05:07.805Z,12.55
2023-02-23T03:08:00.394Z,12.55
2023-02-23T03:10:59.904Z,12.57
2023-02-23T03:14:05.172Z,12.59
2023-02-23T03:17:01.983Z,12.61
2023-02-23T03:19:53.905Z,12.63
2023-02-23T03:22:46.492Z,12.66
2023-02-23T03:25:38.207Z,12.68
2023-02-23T03:28:32.366Z,12.71
2023-02-23T03:31:28.567Z,12.73
2023-02-23T03:34:27.708Z,12.76
2023-02-23T03:37:23.355Z,12.77
2023-02-23T03:40:21.658Z,12.78
2023-02-23T03:43:11.406Z,12.80
2023-02-23T03:45:59.811Z,12.81
2023-02-23T03:48:46.617Z,12.82
2023-02-23T03:51:33.868Z,12.83
2023-02-23T03:54:27.088Z,12.81
2023-02-23T03:57:17.876Z,12.81
2023-02-23T04:00:12.273Z,12.78
2023-02-23T04:03:02.655Z,12.79
2023-02-23T04:05:50.139Z,12.77
2023-02-23T04:08:38.543Z,12.76
2023-02-23T04:11:35.135Z,12.73
2023-02-23T04:14:09.273Z,12.73
2023-02-23T04:16:38.142Z,12.72
2023-02-23T04:19:08.208Z,12.72
2023-02-23T04:21:36.645Z,12.73
2023-02-23T04:24:05.566Z,12.72
2023-02-23T04:26:33.981Z,12.72
2023-02-23T04:29:02.382Z,12.72
2023-02-23T04:31:30.865Z,12.72
2023-02-23T04:33:59.300Z,12.71
2023-02-23T04:36:29.069Z,12.72
2023-02-23T04:38:57.553Z,12.71
2023-02-23T04:41:25.996Z,12.70
2023-02-23T04:43:54.433Z,12.68
2023-02-23T04:46:22.905Z,12.66
2023-02-23T04:48:51.334Z,12.65
2023-02-23T04:51:20.034Z,12.63
2023-02-23T04:53:49.946Z,12.62
2023-02-23T04:56:18.338Z,12.61
2023-02-23T04:58:46.715Z,12.59
2023-02-23T05:01:15.199Z,12.59
2023-02-23T05:03:43.657Z,12.58
2023-02-23T05:06:13.258Z,12.56
2023-02-23T05:08:41.697Z,12.56
2023-02-23T05:11:11.859Z,12.55
2023-02-23T05:13:40.484Z,12.56
2023-02-23T05:16:10.089Z,12.54
2023-02-23T05:18:38.552Z,12.52
2023-02-23T05:21:09.345Z,12.52
2023-02-23T05:23:39.009Z,12.50
2023-02-23T05:26:12.312Z,12.48
2023-02-23T05:28:42.892Z,12.47
2023-02-23T05:31:11.906Z,12.46
2023-02-23T05:33:42.681Z,12.46
2023-02-23T05:36:13.174Z,12.43
2023-02-23T05:38:42.283Z,12.42
2023-02-23T05:41:14.433Z,12.39
2023-02-23T05:43:43.150Z,12.39
2023-02-23T05:46:13.299Z,12.39
2023-02-23T05:48:41.840Z,12.43
2023-02-23T05:51:15.047Z,12.47
2023-02-23T05:53:43.646Z,12.53
2023-02-23T05:56:18.333Z,12.59
2023-02-23T05:58:46.853Z,12.67
2023-02-23T06:01:15.317Z,12.74
2023-02-23T06:03:43.758Z,12.81
2023-02-23T06:06:12.376Z,12.87
2023-02-23T06:08:41.177Z,12.96
2023-02-23T06:11:09.937Z,13.02
2023-02-23T06:13:40.403Z,13.08
2023-02-23T06:16:09.824Z,13.13
2023-02-23T06:18:38.364Z,13.17
2023-02-23T06:21:07.487Z,13.21
2023-02-23T06:23:35.935Z,13.28
2023-02-23T06:26:04.371Z,13.34
2023-02-23T06:28:32.927Z,13.42
2023-02-23T06:31:03.096Z,13.45
2023-02-23T06:33:31.659Z,13.49
2023-02-23T06:36:00.101Z,13.52
2023-02-23T06:38:28.606Z,13.57
2023-02-23T06:40:57.087Z,13.62
2023-02-23T06:43:25.546Z,13.66
2023-02-23T06:45:54.000Z,13.72
2023-02-23T06:48:23.806Z,13.76
2023-02-23T06:50:52.548Z,13.77
2023-02-23T06:53:22.088Z,13.80
2023-02-23T06:55:50.529Z,13.82
2023-02-23T06:58:19.025Z,13.87
2023-02-23T07:00:47.414Z,13.90
2023-02-23T07:03:15.816Z,13.95
2023-02-23T07:05:45.698Z,13.98
2023-02-23T07:08:14.164Z,14.03
2023-02-23T07:10:42.551Z,14.08
2023-02-23T07:13:12.957Z,14.14
2023-02-23T07:15:42.607Z,14.18
2023-02-23T07:18:11.111Z,14.18
2023-02-23T07:20:39.559Z,14.20
2023-02-23T07:23:09.366Z,14.22
2023-02-23T07:25:37.767Z,14.24
2023-02-23T07:28:06.435Z,14.26
2023-02-23T07:30:34.890Z,14.27
2023-02-23T07:33:03.399Z,14.30
2023-02-23T07:35:31.891Z,14.33
2023-02-23T07:38:00.367Z,14.38
2023-02-23T07:40:30.269Z,14.41
2023-02-23T07:42:58.710Z,14.47
2023-02-23T07:45:27.129Z,14.54
2023-02-23T07:47:55.554Z,14.64
2023-02-23T07:50:24.067Z,14.69
2023-02-23T07:52:52.676Z,14.75
2023-02-23T07:55:22.441Z,14.83
2023-02-23T07:57:52.275Z,14.91
2023-02-23T08:00:21.700Z,15.02
2023-02-23T08:02:50.187Z,15.13
2023-02-23T08:05:18.760Z,15.23
2023-02-23T08:07:47.264Z,15.33
2023-02-23T08:10:15.817Z,15.40
2023-02-23T08:12:44.605Z,15.40
2023-02-23T08:15:14.574Z,15.38
2023-02-23T08:17:43.497Z,15.37
2023-02-23T08:20:13.088Z,15.42
2023-02-23T08:22:49.279Z,15.52
2023-02-23T08:25:19.154Z,15.66
2023-02-23T08:27:48.167Z,15.82
2023-02-23T08:30:19.291Z,15.96
2023-02-23T08:32:48.082Z,16.13
2023-02-23T08:35:18.778Z,16.25
2023-02-23T08:37:47.295Z,16.31
2023-02-23T08:40:18.344Z,16.27
2023-02-23T08:42:48.694Z,16.25
2023-02-23T08:45:18.757Z,16.20
2023-02-23T08:47:47.456Z,16.13
2023-02-23T08:50:16.332Z,16.08
2023-02-23T08:52:44.757Z,16.05
2023-02-23T08:55:13.954Z,16.07
2023-02-23T08:57:42.445Z,16.08
2023-02-23T09:00:16.871Z,16.12
2023-02-23T09:02:48.425Z,16.15
2023-02-23T09:05:18.086Z,16.18
2023-02-23T09:07:49.466Z,16.22
2023-02-23T09:10:20.953Z,16.26
2023-02-23T09:12:49.457Z,16.34
2023-02-23T09:15:18.269Z,16.42
2023-02-23T09:17:48.902Z,16.48
2023-02-23T09:20:19.029Z,16.52
2023-02-23T09:22:49.697Z,16.53
2023-02-23T09:25:22.848Z,16.54
2023-02-23T09:27:52.954Z,16.52
2023-02-23T09:30:22.617Z,16.53
2023-02-23T09:32:53.648Z,16.57
2023-02-23T09:35:24.867Z,16.65
2023-02-23T09:37:56.984Z,16.70
2023-02-23T09:40:29.335Z,16.78
2023-02-23T09:43:03.974Z,16.86
2023-02-23T09:45:41.937Z,16.92
2023-02-23T09:48:21.286Z,17.01
2023-02-23T09:50:52.715Z,17.07
2023-02-23T09:53:40.503Z,17.07
2023-02-23T09:56:17.895Z,17.13
2023-02-23T09:58:46.447Z,17.18
2023-02-23T10:01:57.908Z,17.19
2023-02-23T10:04:32.480Z,17.24
2023-02-23T10:07:06.539Z,17.31
2023-02-23T10:09:56.513Z,17.37
2023-02-23T10:12:33.918Z,17.45
2023-02-23T10:15:23.897Z,17.49
2023-02-23T10:18:06.775Z,17.58
2023-02-23T10:20:47.704Z,17.57
2023-02-23T10:23:23.175Z,17.57
2023-02-23T10:25:53.224Z,17.58
2023-02-23T10:28:23.618Z,17.57
2023-02-23T10:30:54.126Z,17.60
2023-02-23T10:33:30.110Z,17.67
2023-02-23T10:36:13.764Z,17.79
2023-02-23T10:38:42.781Z,17.92
2023-02-23T10:41:14.855Z,17.97
2023-02-23T10:43:43.733Z,17.97
2023-02-23T10:46:18.657Z,17.95
2023-02-23T10:48:48.782Z,18.01
2023-02-23T10:51:25.671Z,18.04
2023-02-23T10:53:54.154Z,18.09
2023-02-23T10:56:24.142Z,18.16
2023-02-23T10:58:55.709Z,18.36
2023-02-23T11:01:49.177Z,18.70
2023-02-23T11:04:28.528Z,19.14
2023-02-23T11:07:16.415Z,19.48
2023-02-23T11:09:47.855Z,19.78
2023-02-23T11:12:23.108Z,19.91
2023-02-23T11:14:53.773Z,19.99
2023-02-23T11:17:33.291Z,19.96
2023-02-23T11:20:06.533Z,19.91
2023-02-23T11:22:41.901Z,19.88
2023-02-23T11:25:22.091Z,19.90
2023-02-23T11:27:53.883Z,20.01
2023-02-23T11:30:25.381Z,20.17
2023-02-23T11:32:57.050Z,20.45
2023-02-23T11:35:32.329Z,20.85
2023-02-23T11:38:23.453Z,21.29
2023-02-23T11:41:02.498Z,21.76
2023-02-23T11:43:31.380Z,22.20
2023-02-23T11:46:03.666Z,22.78
2023-02-23T11:48:37.784Z,23.40
2023-02-23T11:51:06.915Z,23.92
2023-02-23T11:53:40.887Z,24.39
2023-02-23T11:56:12.640Z,24.71
2023-02-23T11:58:45.229Z,24.91
2023-02-23T12:01:17.394Z,25.30
2023-02-23T12:03:50.692Z,25.72
2023-02-23T12:06:31.133Z,26.19
2023-02-23T12:09:13.044Z,26.62
2023-02-23T12:11:48.704Z,26.88
2023-02-23T12:14:30.785Z,27.08
2023-02-23T12:17:05.449Z,27.42
2023-02-23T12:19:39.161Z,27.75
2023-02-23T12:22:15.108Z,28.14
2023-02-23T12:24:50.509Z,28.30
2023-02-23T12:27:26.990Z,28.25
2023-02-23T12:30:11.076Z,28.07
2023-02-23T12:32:51.377Z,27.76
2023-02-23T12:35:27.055Z,27.44
2023-02-23T12:38:03.616Z,27.26
2023-02-23T12:40:38.637Z,27.22
2023-02-23T12:43:16.035Z,27.37
2023-02-23T12:45:52.709Z,27.63
2023-02-23T12:48:34.504Z,27.83
2023-02-23T12:51:12.592Z,27.88
2023-02-23T12:53:44.545Z,27.73
2023-02-23T12:56:42.532Z,27.53
2023-02-23T12:59:53.354Z,27.50
2023-02-23T13:02:30.757Z,27.65
2023-02-23T13:05:26.980Z,27.73
2023-02-23T13:08:13.882Z,27.88
2023-02-23T13:10:56.231Z,27.92
2023-02-23T13:13:35.296Z,28.05
2023-02-23T13:16:16.826Z,27.96
2023-02-23T13:18:51.411Z,27.67
2023-02-23T13:21:27.310Z,27.38
2023-02-23T13:24:02.535Z,27.16
2023-02-23T13:26:40.267Z,26.96
2023-02-23T13:29:26.003Z,26.88
2023-02-23T13:31:55.021Z,26.80
2023-02-23T13:34:29.621Z,26.70
2023-02-23T13:37:00.140Z,26.59
2023-02-23T13:39:57.434Z,26.27
2023-02-23T13:42:41.526Z,25.81
2023-02-23T13:45:32.630Z,25.27
2023-02-23T13:48:15.509Z,24.84
2023-02-23T13:50:51.504Z,24.39
2023-02-23T13:53:42.676Z,23.96
2023-02-23T13:56:17.053Z,23.71
2023-02-23T13:58:52.289Z,23.47
2023-02-23T14:01:31.190Z,23.25
2023-02-23T14:04:02.978Z,23.07
2023-02-23T14:06:34.508Z,22.93
2023-02-23T14:09:11.723Z,22.79
2023-02-23T14:11:51.403Z,22.71
2023-02-23T14:14:44.860Z,22.63
2023-02-23T14:18:00.442Z,22.49
2023-02-23T14:20:47.711Z,22.46
2023-02-23T14:23:35.549Z,22.32
2023-02-23T14:26:34.365Z,22.24
2023-02-23T14:29:29.670Z,22.18
2023-02-23T14:32:03.915Z,22.25
2023-02-23T14:34:57.302Z,22.30
2023-02-23T14:37:32.123Z,22.35
2023-02-23T14:40:13.238Z,22.34
2023-02-23T14:42:43.029Z,22.34
2023-02-23T14:45:25.744Z,22.27
2023-02-23T14:48:00.032Z,22.20
2023-02-23T14:50:33.703Z,22.14
2023-02-23T14:53:04.173Z,22.12
2023-02-23T14:55:36.823Z,22.06
2023-02-23T14:58:23.285Z,22.00
2023-02-23T15:00:52.166Z,21.99
2023-02-23T15:03:22.553Z,22.01
2023-02-23T15:05:57.663Z,21.94
2023-02-23T15:08:28.414Z,21.86
2023-02-23T15:11:04.625Z,21.73
2023-02-23T15:13:39.996Z,21.62
2023-02-23T15:16:15.441Z,21.49
2023-02-23T15:19:32.427Z,21.32
2023-02-23T15:22:06.386Z,21.22
2023-02-23T15:24:44.063Z,21.11
2023-02-23T15:27:20.187Z,21.00
2023-02-23T15:29:49.192Z,20.90
2023-02-23T15:32:24.913Z,20.78
2023-02-23T15:34:55.834Z,20.69
2023-02-23T15:37:36.998Z,20.60
2023-02-23T15:40:09.732Z,20.52
2023-02-23T15:42:43.375Z,20.42
2023-02-23T15:45:20.109Z,20.31
2023-02-23T15:47:49.813Z,20.24
2023-02-23T15:50:34.652Z,20.15
2023-02-23T15:53:14.755Z,20.06
2023-02-23T15:55:45.420Z,19.98
2023-02-23T15:58:21.894Z,19.90
2023-02-23T16:00:57.242Z,19.82
2023-02-23T16:03:31.648Z,19.76
2023-02-23T16:06:10.783Z,19.68
2023-02-23T16:08:58.093Z,19.58
2023-02-23T16:11:28.202Z,19.55
2023-02-23T16:13:57.575Z,19.50
2023-02-23T16:16:27.820Z,19.45
2023-02-23T16:19:01.899Z,19.39
2023-02-23T16:21:32.676Z,19.34
2023-02-23T16:24:10.716Z,19.28
2023-02-23T16:26:46.281Z,19.23
2023-02-23T16:29:21.169Z,19.19
2023-02-23T16:31:59.263Z,19.16
2023-02-23T16:34:35.985Z,19.14
2023-02-23T16:37:17.812Z,19.08
2023-02-23T16:39:48.131Z,19.04
2023-02-23T16:42:27.760Z,18.98
2023-02-23T16:44:57.748Z,18.95
2023-02-23T16:47:37.420Z,18.89
2023-02-23T16:50:20.054Z,18.86
2023-02-23T16:52:53.494Z,18.82
2023-02-23T16:55:27.339Z,18.78
2023-02-23T16:58:00.152Z,18.74
2023-02-23T17:00:31.625Z,18.69
2023-02-23T17:03:02.426Z,18.65
2023-02-23T17:05:31.453Z,18.61
2023-02-23T17:08:00.503Z,18.55
2023-02-23T17:10:35.708Z,18.51
2023-02-23T17:13:08.583Z,18.47
2023-02-23T17:15:44.782Z,18.42
2023-02-23T17:18:17.436Z,18.37
2023-02-23T17:20:47.557Z,18.31
2023-02-23T17:23:16.975Z,18.27
2023-02-23T17:25:49.498Z,18.21
2023-02-23T17:28:20.406Z,18.18
2023-02-23T17:30:50.371Z,18.12
2023-02-23T17:33:20.355Z,18.09
2023-02-23T17:35:49.883Z,18.05
2023-02-23T17:38:21.960Z,18.02
2023-02-23T17:40:55.125Z,17.99
2023-02-23T17:43:24.720Z,17.95
2023-02-23T17:45:57.102Z,17.90
2023-02-23T17:48:29.310Z,17.88
2023-02-23T17:51:01.256Z,17.85
2023-02-23T17:53:33.537Z,17.82
2023-02-23T17:56:05.047Z,17.80
2023-02-23T17:58:39.454Z,17.79
2023-02-23T18:01:10.340Z,17.77
2023-02-23T18:03:43.841Z,17.75
2023-02-23T18:06:15.975Z,17.74
2023-02-23T18:08:49.719Z,17.72
2023-02-23T18:11:20.912Z,17.70
2023-02-23T18:13:52.521Z,17.69
2023-02-23T18:16:24.921Z,17.68
2023-02-23T18:18:58.205Z,17.67
2023-02-23T18:21:28.622Z,17.65
2023-02-23T18:23:58.514Z,17.65
2023-02-23T18:26:30.012Z,17.64
2023-02-23T18:29:00.451Z,17.62
2023-02-23T18:31:30.617Z,17.61
2023-02-23T18:34:02.183Z,17.58
2023-02-23T18:36:37.440Z,17.56
2023-02-23T18:39:10.042Z,17.54
2023-02-23T18:41:42.430Z,17.51
2023-02-23T18:44:16.147Z,17.49
2023-02-23T18:46:48.258Z,17.45
2023-02-23T18:49:21.467Z,17.44
2023-02-23T18:51:52.457Z,17.41
2023-02-23T18:54:23.093Z,17.38
2023-02-23T18:56:56.376Z,17.36
2023-02-23T18:59:26.662Z,17.32
2023-02-23T19:01:57.492Z,17.30
2023-02-23T19:04:31.613Z,17.29
2023-02-23T19:07:02.139Z,17.28
2023-02-23T19:09:33.957Z,17.27
2023-02-23T19:12:08.749Z,17.26
2023-02-23T19:14:49.241Z,17.25
2023-02-23T19:17:21.072Z,17.24
2023-02-23T19:19:51.459Z,17.24
2023-02-23T19:22:22.215Z,17.22
2023-02-23T19:24:52.641Z,17.20
2023-02-23T19:27:25.316Z,17.19
2023-02-23T19:29:56.331Z,17.17
2023-02-23T19:32:25.929Z,17.19
2023-02-23T19:34:56.678Z,17.18
2023-02-23T19:37:27.675Z,17.16
2023-02-23T19:39:57.910Z,17.14
2023-02-23T19:42:31.033Z,17.13
2023-02-23T19:45:01.442Z,17.09
2023-02-23T19:47:31.978Z,17.07
2023-02-23T19:50:01.846Z,17.05
2023-02-23T19:52:32.786Z,17.03
2023-02-23T19:55:02.907Z,17.00
2023-02-23T19:57:35.224Z,16.99
2023-02-23T20:00:12.894Z,16.97
2023-02-23T20:02:48.282Z,16.96
2023-02-23T20:05:20.434Z,16.94
2023-02-23T20:07:52.196Z,16.93
2023-02-23T20:10:26.236Z,16.91
2023-02-23T20:12:58.320Z,16.90
2023-02-23T20:15:28.264Z,16.89
2023-02-23T20:18:01.585Z,16.91
2023-02-23T20:20:32.493Z,16.91
2023-02-23T20:23:02.507Z,16.91
2023-02-23T20:25:32.767Z,16.90
2023-02-23T20:28:08.517Z,16.85
2023-02-23T20:30:40.265Z,16.82
2023-02-23T20:33:12.490Z,16.80
2023-02-23T20:35:42.483Z,16.77
2023-02-23T20:38:14.783Z,16.75
2023-02-23T20:40:45.795Z,16.74
2023-02-23T20:43:18.210Z,16.73
2023-02-23T20:45:49.014Z,16.74
2023-02-23T20:48:19.818Z,16.77
2023-02-23T20:50:54.669Z,16.78
2023-02-23T20:53:25.464Z,16.78
2023-02-23T20:55:56.358Z,16.77
2023-02-23T20:58:30.150Z,16.76
2023-02-23T21:01:04.101Z,16.77
2023-02-23T21:03:35.239Z,16.78
2023-02-23T21:06:05.203Z,16.75
2023-02-23T21:08:38.043Z,16.71
2023-02-23T21:11:09.676Z,16.68
2023-02-23T21:13:40.950Z,16.64
2023-02-23T21:16:17.407Z,16.61
2023-02-23T21:18:47.221Z,16.59
2023-02-23T21:21:17.312Z,16.61
2023-02-23T21:23:49.378Z,16.62
2023-02-23T21:26:22.013Z,16.65
2023-02-23T21:28:53.252Z,16.67
2023-02-23T21:31:22.513Z,16.72
2023-02-23T21:33:52.444Z,16.74
2023-02-23T21:36:22.252Z,16.78
2023-02-23T21:38:52.430Z,16.82
2023-02-23T21:41:21.327Z,16.85
2023-02-23T21:43:53.950Z,16.87
2023-02-23T21:46:24.263Z,16.88
2023-02-23T21:48:53.634Z,16.90
2023-02-23T21:51:23.257Z,16.91
2023-02-23T21:53:53.479Z,16.93
2023-02-23T21:56:23.605Z,16.92
2023-02-23T21:58:56.345Z,16.92
2023-02-23T22:01:28.083Z,16.92
2023-02-23T22:03:57.434Z,16.91
2023-02-23T22:06:29.351Z,16.88
2023-02-23T22:08:58.347Z,16.87
2023-02-23T22:11:29.888Z,16.85
2023-02-23T22:14:01.078Z,16.82
2023-02-23T22:16:32.809Z,16.80
2023-02-23T22:19:04.316Z,16.80
2023-02-23T22:21:34.981Z,16.79
2023-02-23T22:24:05.575Z,16.79
2023-02-23T22:26:34.666Z,16.78
2023-02-23T22:29:05.044Z,16.77
2023-02-23T22:31:34.262Z,16.78
2023-02-23T22:34:02.829Z,16.80
2023-02-23T22:36:31.295Z,16.81
2023-02-23T22:39:00.546Z,16.81
2023-02-23T22:41:30.542Z,16.82
2023-02-23T22:43:59.203Z,16.82
2023-02-23T22:46:29.162Z,16.82
2023-02-23T22:48:57.574Z,16.82
2023-02-23T22:51:26.010Z,16.84
2023-02-23T22:53:54.462Z,16.82
2023-02-23T22:56:23.111Z,16.82
2023-02-23T22:58:54.548Z,16.81
2023-02-23T23:01:26.709Z,16.80
2023-02-23T23:03:56.602Z,16.80
2023-02-23T23:06:25.179Z,16.80
2023-02-23T23:08:58.223Z,16.80
2023-02-23T23:11:30.003Z,16.79
2023-02-23T23:14:02.163Z,16.78
2023-02-23T23:16:33.473Z,16.77
2023-02-23T23:19:12.067Z,16.77
2023-02-23T23:21:43.604Z,16.74
2023-02-23T23:24:15.267Z,16.71
2023-02-23T23:26:44.422Z,16.69
2023-02-23T23:29:15.856Z,16.65
2023-02-23T23:31:46.599Z,16.62
2023-02-23T23:34:21.956Z,16.60
2023-02-23T23:36:53.467Z,16.60
2023-02-23T23:39:26.109Z,16.58
2023-02-23T23:41:55.476Z,16.57
2023-02-23T23:44:29.173Z,16.54
2023-02-23T23:46:58.353Z,16.55
2023-02-23T23:49:28.415Z,16.52
2023-02-23T23:51:57.971Z,16.52
2023-02-23T23:54:28.862Z,16.52
2023-02-23T23:56:57.847Z,16.53
2023-02-23T23:59:27.752Z,16.54
